Disclaimer

Please do not use the information listed here in-flight or in-navigation, as they are not provided to us by the airports but are provided by volunteers, so they might be outdated.

Search


Regions


Airport information page

Radio informations:
Tower (TWR) - 119.2 MHz
Approach (APP) - 119.2 MHz

Airport informations:
Latitude: 25° 22' 59.48" S
Longitude: 031° 06' 20.17" E
Elevation: 2829 feet - 862 meters
Operating hours: Remarks
Operating agency: Private
Timezone: UTC+2
Fuel: Jet A1, without icing nhibitor.

100/130 MIL Spec, low lead, aviation gasoline (BLUE)

Runway information:
05/23 - 10171 x 148 feet< - >3100 x 45 meters

Recent METARs:
FAKN 131500Z AUTO 06009KT //// // ////// 25/13 Q1019
FAKN 131500Z AUTO 06009KT //// // ////// 25/13 Q1019
FAKN 131600Z 06005KT CAVOK 23/13 Q1020 NOSIG

Airport on the map: